createdAt,value
2018-03-08T00:01:24.396Z,98.13
2018-03-08T00:03:51.897Z,99.53
2018-03-08T00:06:19.620Z,111.47
2018-03-08T00:08:47.215Z,100.00
2018-03-08T00:11:15.758Z,104.63
2018-03-08T00:13:43.255Z,102.60
2018-03-08T00:16:10.800Z,111.77
2018-03-08T00:18:38.348Z,108.07
2018-03-08T00:21:05.896Z,115.13
2018-03-08T00:23:33.411Z,105.93
2018-03-08T00:26:00.912Z,108.87
2018-03-08T00:28:28.567Z,103.73
2018-03-08T00:30:56.408Z,112.73
2018-03-08T00:33:24.100Z,105.77
2018-03-08T00:35:51.608Z,119.50
2018-03-08T00:38:19.192Z,115.13
2018-03-08T00:40:46.679Z,126.53
2018-03-08T00:43:14.189Z,117.57
2018-03-08T00:45:42.000Z,119.50
2018-03-08T00:48:09.781Z,117.40
2018-03-08T00:50:37.284Z,106.27
2018-03-08T00:53:05.008Z,121.87
2018-03-08T00:55:32.455Z,123.20
2018-03-08T00:58:00.071Z,134.57
2018-03-08T01:00:27.627Z,135.57
2018-03-08T01:02:55.415Z,129.27
2018-03-08T01:05:22.920Z,129.43
2018-03-08T01:07:50.455Z,129.30
2018-03-08T01:10:17.992Z,126.43
2018-03-08T01:12:45.508Z,138.40
2018-03-08T01:15:13.015Z,129.70
2018-03-08T01:17:40.528Z,141.73
2018-03-08T01:20:08.242Z,139.83
2018-03-08T01:22:35.764Z,115.40
2018-03-08T01:25:03.452Z,108.13
2018-03-08T01:27:31.561Z,118.00
2018-03-08T01:29:59.189Z,105.30
2018-03-08T01:32:26.683Z,106.80
2018-03-08T01:34:54.196Z,110.97
2018-03-08T01:37:21.699Z,118.73
2018-03-08T01:39:49.420Z,121.20
2018-03-08T01:42:16.919Z,130.53
2018-03-08T01:44:44.631Z,131.90
2018-03-08T01:47:12.135Z,121.23
2018-03-08T01:49:39.863Z,124.07
2018-03-08T01:52:12.183Z,124.70
2018-03-08T01:54:39.987Z,127.70
2018-03-08T01:57:08.335Z,141.53
2018-03-08T01:59:35.839Z,130.70
2018-03-08T02:02:03.951Z,140.03
2018-03-08T02:04:31.591Z,126.70
2018-03-08T02:06:59.115Z,127.03
2018-03-08T02:09:26.632Z,117.27
2018-03-08T02:11:54.308Z,142.23
2018-03-08T02:14:22.003Z,126.37
2018-03-08T02:16:49.512Z,140.83
2018-03-08T02:19:17.020Z,131.40
2018-03-08T02:21:44.533Z,135.57
2018-03-08T02:24:12.204Z,132.93
2018-03-08T02:26:39.708Z,143.77
2018-03-08T02:29:09.013Z,122.80
2018-03-08T02:31:36.783Z,140.70
2018-03-08T02:34:04.520Z,129.40
2018-03-08T02:36:32.012Z,127.47
2018-03-08T02:38:59.519Z,140.83
2018-03-08T02:41:27.192Z,138.43
2018-03-08T02:43:54.956Z,137.97
2018-03-08T02:46:22.461Z,128.20
2018-03-08T02:48:50.012Z,128.40
2018-03-08T02:51:18.288Z,123.73
2018-03-08T02:53:46.007Z,124.83
2018-03-08T02:56:13.549Z,131.43
2018-03-08T02:58:41.191Z,119.57
2018-03-08T03:01:08.989Z,112.07
2018-03-08T03:03:36.626Z,119.67
2018-03-08T03:06:04.131Z,116.37
2018-03-08T03:08:32.151Z,115.27
2018-03-08T03:10:59.659Z,113.37
2018-03-08T03:13:27.936Z,128.57
2018-03-08T03:15:55.576Z,138.27
2018-03-08T03:18:23.335Z,128.53
2018-03-08T03:20:51.079Z,126.73
2018-03-08T03:23:18.811Z,134.77
2018-03-08T03:25:46.324Z,139.10
2018-03-08T03:28:14.243Z,153.83
2018-03-08T03:30:41.757Z,156.57
2018-03-08T03:33:09.255Z,163.40
2018-03-08T03:35:37.065Z,168.47
2018-03-08T03:38:04.577Z,163.80
2018-03-08T03:40:32.079Z,166.83
2018-03-08T03:42:59.590Z,175.50
2018-03-08T03:45:27.863Z,168.00
2018-03-08T03:47:55.546Z,182.33
2018-03-08T03:50:23.339Z,172.30
2018-03-08T03:52:50.846Z,176.17
2018-03-08T03:55:18.559Z,169.50
2018-03-08T03:57:46.072Z,174.70
2018-03-08T04:00:13.800Z,181.70
2018-03-08T04:02:44.028Z,194.40
2018-03-08T04:05:11.740Z,176.63
2018-03-08T04:07:39.455Z,180.67
2018-03-08T04:10:07.727Z,190.23
2018-03-08T04:12:35.542Z,199.97
2018-03-08T04:15:03.040Z,201.73
2018-03-08T04:17:30.592Z,195.63
2018-03-08T04:19:58.098Z,192.77
2018-03-08T04:22:25.675Z,201.97
2018-03-08T04:24:53.132Z,186.53
2018-03-08T04:27:21.024Z,196.87
2018-03-08T04:29:48.803Z,198.57
2018-03-08T04:32:16.547Z,192.20
2018-03-08T04:34:44.047Z,197.83
2018-03-08T04:37:11.579Z,197.07
2018-03-08T04:39:39.200Z,196.83
2018-03-08T04:42:06.726Z,197.57
2018-03-08T04:44:34.456Z,192.13
2018-03-08T04:47:01.975Z,204.53
2018-03-08T04:49:29.641Z,204.17
2018-03-08T04:51:57.438Z,205.63
2018-03-08T04:54:24.940Z,200.60
2018-03-08T04:56:53.208Z,204.93
2018-03-08T04:59:20.724Z,206.13
2018-03-08T05:01:48.287Z,207.27
2018-03-08T05:04:15.783Z,199.33
2018-03-08T05:06:44.075Z,210.83
2018-03-08T05:09:11.587Z,201.57
2018-03-08T05:11:39.264Z,190.10
2018-03-08T05:14:06.768Z,198.13
2018-03-08T05:16:34.374Z,195.50
2018-03-08T05:19:01.928Z,207.10
2018-03-08T05:21:30.935Z,212.60
2018-03-08T05:23:58.451Z,199.27
2018-03-08T05:26:25.959Z,225.47
2018-03-08T05:28:54.241Z,236.77
2018-03-08T05:31:21.959Z,222.23
2018-03-08T05:33:49.474Z,235.37
2018-03-08T05:36:17.011Z,207.13
2018-03-08T05:38:45.279Z,222.00
2018-03-08T05:41:13.007Z,207.73
2018-03-08T05:43:40.775Z,226.17
2018-03-08T05:46:08.275Z,221.97
2018-03-08T05:48:35.829Z,220.93
2018-03-08T05:51:03.322Z,212.07
2018-03-08T05:53:30.815Z,200.37
2018-03-08T05:55:58.336Z,233.47
2018-03-08T05:58:25.834Z,225.87
2018-03-08T06:00:53.357Z,301.43
2018-03-08T06:03:20.863Z,289.10
2018-03-08T06:05:48.375Z,216.37
2018-03-08T06:08:16.097Z,218.53
2018-03-08T06:10:44.360Z,214.50
2018-03-08T06:13:11.887Z,216.87
2018-03-08T06:15:39.446Z,206.60
2018-03-08T06:18:07.323Z,201.70
2018-03-08T06:20:34.828Z,199.33
2018-03-08T06:23:02.331Z,196.13
2018-03-08T06:25:29.982Z,202.23
2018-03-08T06:27:57.472Z,208.27
2018-03-08T06:30:25.211Z,210.37
2018-03-08T06:32:52.744Z,208.33
2018-03-08T06:35:20.238Z,201.17
2018-03-08T06:37:47.904Z,182.03
2018-03-08T06:40:15.416Z,178.63
2018-03-08T06:42:42.919Z,183.67
2018-03-08T06:45:10.416Z,195.77
2018-03-08T06:47:37.920Z,177.73
2018-03-08T06:50:05.428Z,194.47
2018-03-08T06:52:32.936Z,187.67
2018-03-08T06:55:00.439Z,195.80
2018-03-08T06:57:28.164Z,187.07
2018-03-08T06:59:55.680Z,184.40
2018-03-08T07:02:23.384Z,162.47
2018-03-08T07:04:52.412Z,160.57
2018-03-08T07:07:19.920Z,159.10
2018-03-08T07:09:47.475Z,156.23
2018-03-08T07:12:15.728Z,146.07
2018-03-08T07:14:43.262Z,134.70
2018-03-08T07:17:11.752Z,120.20
2018-03-08T07:19:39.260Z,124.10
2018-03-08T07:22:06.824Z,132.60
2018-03-08T07:24:34.349Z,116.30
2018-03-08T07:27:01.887Z,122.93
2018-03-08T07:29:29.404Z,123.50
2018-03-08T07:31:56.939Z,116.10
2018-03-08T07:34:24.480Z,130.20
2018-03-08T07:36:51.975Z,137.27
2018-03-08T07:39:19.515Z,110.17
2018-03-08T07:41:47.024Z,114.67
2018-03-08T07:44:14.780Z,107.37
2018-03-08T07:46:42.296Z,120.00
2018-03-08T07:49:09.783Z,77.33
2018-03-08T07:51:37.295Z,95.57
2018-03-08T07:54:04.896Z,90.37
2018-03-08T07:56:32.615Z,101.73
2018-03-08T07:59:00.118Z,87.80
2018-03-08T08:01:27.847Z,90.60
2018-03-08T08:03:55.619Z,93.13
2018-03-08T08:06:35.086Z,77.93
2018-03-08T08:09:08.346Z,83.53
2018-03-08T08:11:35.860Z,89.47
2018-03-08T08:14:03.542Z,65.23
2018-03-08T08:16:31.082Z,60.63
2018-03-08T08:18:58.583Z,64.27
2018-03-08T08:21:26.119Z,63.83
2018-03-08T08:23:53.699Z,66.67
2018-03-08T08:26:21.210Z,65.87
2018-03-08T08:28:48.896Z,66.93
2018-03-08T08:31:16.804Z,68.37
2018-03-08T08:33:44.303Z,64.73
2018-03-08T08:36:11.944Z,61.33
2018-03-08T08:38:39.455Z,68.80
2018-03-08T08:41:07.138Z,51.37
2018-03-08T08:43:34.657Z,58.80
2018-03-08T08:46:02.171Z,60.73
2018-03-08T08:48:29.679Z,58.17
2018-03-08T08:50:57.184Z,49.50
2018-03-08T08:53:24.710Z,55.57
2018-03-08T08:55:52.475Z,53.70
2018-03-08T08:58:19.980Z,47.83
2018-03-08T09:00:47.696Z,50.40
2018-03-08T09:03:15.212Z,44.50
2018-03-08T09:05:42.712Z,45.20
2018-03-08T09:08:10.232Z,32.80
2018-03-08T09:10:37.791Z,46.53
2018-03-08T09:13:05.296Z,46.07
2018-03-08T09:15:33.051Z,43.73
2018-03-08T09:18:00.552Z,47.40
2018-03-08T09:20:28.280Z,45.53
2018-03-08T09:22:55.798Z,43.73
2018-03-08T09:25:23.491Z,54.10
2018-03-08T09:27:51.000Z,36.73
2018-03-08T09:30:18.674Z,50.10
2018-03-08T09:32:46.180Z,49.93
2018-03-08T09:35:13.685Z,51.30
2018-03-08T09:37:41.196Z,48.30
2018-03-08T09:40:08.692Z,53.80
2018-03-08T09:42:36.968Z,57.97
2018-03-08T09:45:04.472Z,64.30
2018-03-08T09:47:32.127Z,61.80
2018-03-08T09:49:59.896Z,71.03
2018-03-08T09:52:27.427Z,61.00
2018-03-08T09:54:55.128Z,64.40
2018-03-08T09:57:22.657Z,62.47
2018-03-08T09:59:50.312Z,76.77
2018-03-08T10:02:17.843Z,64.00
2018-03-08T10:04:45.352Z,89.93
2018-03-08T10:07:12.852Z,61.13
2018-03-08T10:09:41.140Z,79.63
2018-03-08T10:12:08.651Z,82.37
2018-03-08T10:14:36.181Z,80.93
2018-03-08T10:17:04.117Z,84.27
2018-03-08T10:19:31.859Z,76.93
2018-03-08T10:21:59.361Z,90.83
2018-03-08T10:24:26.868Z,68.87
2018-03-08T10:26:54.520Z,70.03
2018-03-08T10:29:23.527Z,74.80
2018-03-08T10:31:51.036Z,67.37
2018-03-08T10:34:18.728Z,52.50
2018-03-08T10:36:46.221Z,53.47
2018-03-08T10:44:08.953Z,51.07
2018-03-08T10:46:36.508Z,62.80
2018-03-08T10:49:04.387Z,56.67
2018-03-08T10:51:31.884Z,60.47
2018-03-08T10:53:59.400Z,53.40
2018-03-08T10:56:27.015Z,60.33
2018-03-08T10:58:54.529Z,63.13
2018-03-08T11:01:25.867Z,39.50
2018-03-08T11:03:55.159Z,57.73
2018-03-08T11:06:34.531Z,62.00
2018-03-08T11:09:02.803Z,61.50
2018-03-08T11:11:30.328Z,36.37
2018-03-08T11:13:57.980Z,53.13
2018-03-08T11:16:25.484Z,44.93
2018-03-08T11:18:53.210Z,51.43
2018-03-08T11:21:20.720Z,40.23
2018-03-08T11:23:48.227Z,47.63
2018-03-08T11:26:15.747Z,51.00
2018-03-08T11:28:43.299Z,54.13
2018-03-08T11:31:11.028Z,50.33
2018-03-08T11:33:38.539Z,49.77
2018-03-08T11:36:08.242Z,48.67
2018-03-08T11:38:35.934Z,51.60
2018-03-08T11:41:03.695Z,65.77
2018-03-08T11:43:31.196Z,53.70
2018-03-08T11:45:58.715Z,55.50
2018-03-08T11:48:26.375Z,55.90
2018-03-08T11:50:53.888Z,51.17
2018-03-08T11:53:21.388Z,48.53
2018-03-08T11:55:48.898Z,54.67
2018-03-08T11:58:17.167Z,39.93
2018-03-08T12:00:44.885Z,46.47
2018-03-08T12:03:12.648Z,49.23
2018-03-08T12:05:40.855Z,58.70
2018-03-08T12:08:09.123Z,57.63
2018-03-08T12:10:36.636Z,42.37
2018-03-08T12:13:04.318Z,48.03
2018-03-08T12:15:31.877Z,47.00
2018-03-08T12:17:59.618Z,36.67
2018-03-08T12:20:27.302Z,48.07
2018-03-08T12:22:55.077Z,42.50
2018-03-08T12:25:22.573Z,44.77
2018-03-08T12:27:50.110Z,45.73
2018-03-08T12:30:17.596Z,41.33
2018-03-08T12:32:45.112Z,38.20
2018-03-08T12:35:13.383Z,48.57
2018-03-08T12:37:41.187Z,45.90
2018-03-08T12:40:08.706Z,54.27
2018-03-08T12:42:36.222Z,47.43
2018-03-08T12:45:03.731Z,41.67
2018-03-08T12:47:31.545Z,48.03
2018-03-08T12:49:59.183Z,44.90
2018-03-08T12:52:26.703Z,44.70
2018-03-08T12:54:54.459Z,33.47
2018-03-08T12:57:22.227Z,33.60
2018-03-08T12:59:49.739Z,35.77
2018-03-08T13:02:17.440Z,36.40
2018-03-08T13:04:44.939Z,38.77
2018-03-08T13:07:12.632Z,38.63
2018-03-08T13:09:40.146Z,38.67
2018-03-08T13:12:07.696Z,37.63
2018-03-08T13:14:35.348Z,34.80
2018-03-08T13:17:02.851Z,33.07
2018-03-08T13:19:31.995Z,29.07
2018-03-08T13:22:00.320Z,29.07
2018-03-08T13:24:28.584Z,23.27
2018-03-08T13:26:56.898Z,24.40
2018-03-08T13:29:24.403Z,25.10
2018-03-08T13:31:51.906Z,26.90
2018-03-08T13:34:19.575Z,28.37
2018-03-08T13:39:20.345Z,24.60
2018-03-08T13:41:48.376Z,21.03
2018-03-08T13:44:15.879Z,27.03
2018-03-08T13:46:43.386Z,21.27
2018-03-08T13:49:22.706Z,22.17
2018-03-08T13:51:51.104Z,22.40
2018-03-08T13:54:18.633Z,19.50
2018-03-08T13:56:47.037Z,17.30
2018-03-08T13:59:14.547Z,23.33
2018-03-08T14:01:42.193Z,17.10
2018-03-08T14:04:09.696Z,18.40
2018-03-08T14:06:37.195Z,18.73
2018-03-08T14:09:04.694Z,22.53
2018-03-08T14:11:32.831Z,16.90
2018-03-08T14:14:00.399Z,16.70
2018-03-08T14:16:27.893Z,15.40
2018-03-08T14:18:55.615Z,22.33
2018-03-08T14:21:23.235Z,17.20
2018-03-08T14:23:50.960Z,14.80
2018-03-08T14:26:18.604Z,15.20
2018-03-08T14:28:46.112Z,21.50
2018-03-08T14:31:13.788Z,18.37
2018-03-08T14:33:41.295Z,14.57
2018-03-08T14:36:08.800Z,18.23
2018-03-08T14:38:36.295Z,14.50
2018-03-08T14:41:03.959Z,11.73
2018-03-08T14:43:31.489Z,14.40
2018-03-08T14:45:58.983Z,16.00
2018-03-08T14:48:26.632Z,20.30
2018-03-08T14:50:54.145Z,11.23
2018-03-08T14:53:21.848Z,23.53
2018-03-08T14:55:49.356Z,12.87
2018-03-08T14:58:16.863Z,21.57
2018-03-08T15:00:44.395Z,17.20
2018-03-08T15:03:11.984Z,13.77
2018-03-08T15:05:39.753Z,13.83
2018-03-08T15:08:07.261Z,11.67
2018-03-08T15:10:34.982Z,15.33
2018-03-08T15:13:02.488Z,13.63
2018-03-08T15:15:29.997Z,12.50
2018-03-08T15:17:57.643Z,14.33
2018-03-08T15:20:25.407Z,12.03
2018-03-08T15:22:53.179Z,20.67
2018-03-08T15:25:20.679Z,14.10
2018-03-08T15:27:48.186Z,10.33
2018-03-08T15:30:15.696Z,7.20
2018-03-08T15:32:43.960Z,10.90
2018-03-08T15:35:11.544Z,7.10
2018-03-08T15:37:40.065Z,9.23
2018-03-08T15:40:07.573Z,8.70
2018-03-08T15:42:35.067Z,13.17
2018-03-08T15:45:02.735Z,9.67
2018-03-08T15:47:30.568Z,9.90
2018-03-08T15:49:58.264Z,9.40
2018-03-08T15:52:25.768Z,8.23
2018-03-08T15:54:53.497Z,11.97
2018-03-08T15:57:21.252Z,10.87
2018-03-08T15:59:48.868Z,8.20
2018-03-08T16:02:30.916Z,13.50
2018-03-08T16:04:58.403Z,6.60
2018-03-08T16:10:33.532Z,14.80
2018-03-08T16:13:01.040Z,11.07
2018-03-08T16:15:28.551Z,9.43
2018-03-08T16:17:56.196Z,10.40
2018-03-08T16:20:23.960Z,9.70
2018-03-08T16:22:51.734Z,12.77
2018-03-08T16:25:19.239Z,14.90
2018-03-08T16:27:46.935Z,7.97
2018-03-08T16:30:14.431Z,8.40
2018-03-08T16:32:42.083Z,9.20
2018-03-08T16:35:09.620Z,11.23
2018-03-08T16:37:37.528Z,8.50
2018-03-08T16:40:06.600Z,5.60
2018-03-08T16:42:34.371Z,8.07
2018-03-08T16:45:01.859Z,6.03
2018-03-08T16:47:29.360Z,11.00
2018-03-08T16:49:56.893Z,8.10
2018-03-08T16:52:24.888Z,7.47
2018-03-08T16:54:52.402Z,21.10
2018-03-08T16:57:20.106Z,15.90
2018-03-08T16:59:47.867Z,6.90
2018-03-08T17:02:15.596Z,20.30
2018-03-08T17:04:43.100Z,11.97
2018-03-08T17:07:10.607Z,7.70
2018-03-08T17:09:38.705Z,23.90
2018-03-08T17:12:06.339Z,13.03
2018-03-08T17:14:33.863Z,7.20
2018-03-08T17:17:01.609Z,7.97
2018-03-08T17:19:29.365Z,9.07
2018-03-08T17:21:56.892Z,10.03
2018-03-08T17:24:24.379Z,10.73
2018-03-08T17:26:51.913Z,9.83
2018-03-08T17:29:19.407Z,9.90
2018-03-08T17:31:46.973Z,17.30
2018-03-08T17:34:14.483Z,14.40
2018-03-08T17:36:42.132Z,5.77
2018-03-08T17:39:09.931Z,3.67
2018-03-08T17:41:37.695Z,6.53
2018-03-08T17:44:06.232Z,4.07
2018-03-08T17:46:34.487Z,2.93
2018-03-08T17:49:01.998Z,3.87
2018-03-08T17:51:30.020Z,3.40
2018-03-08T17:53:58.541Z,6.80
2018-03-08T17:56:26.088Z,6.07
2018-03-08T17:58:53.583Z,7.03
2018-03-08T18:01:21.071Z,5.60
2018-03-08T18:03:48.572Z,8.20
2018-03-08T18:06:16.211Z,6.20
2018-03-08T18:08:43.725Z,8.70
2018-03-08T18:11:11.314Z,4.67
2018-03-08T18:13:39.579Z,11.03
2018-03-08T18:16:07.308Z,7.27
2018-03-08T18:18:34.795Z,6.50
2018-03-08T18:21:02.307Z,11.73
2018-03-08T18:23:30.025Z,10.97
2018-03-08T18:25:57.572Z,7.87
2018-03-08T18:28:25.071Z,10.80
2018-03-08T18:30:52.667Z,11.07
2018-03-08T18:33:20.168Z,12.27
2018-03-08T18:35:47.860Z,12.60
2018-03-08T18:38:15.371Z,12.73
2018-03-08T18:40:42.979Z,9.73
2018-03-08T18:43:10.475Z,11.93
2018-03-08T18:45:37.972Z,13.33
2018-03-08T18:48:05.474Z,14.80
2018-03-08T18:50:32.994Z,12.10
2018-03-08T18:53:00.713Z,10.40
2018-03-08T18:55:28.272Z,10.73
2018-03-08T18:57:55.768Z,12.00
2018-03-08T19:00:23.374Z,15.47
2018-03-08T19:02:50.883Z,12.90
2018-03-08T19:05:19.089Z,12.30
2018-03-08T19:07:46.975Z,11.90
2018-03-08T19:10:14.483Z,7.50
2018-03-08T19:12:42.003Z,15.30
2018-03-08T19:15:09.500Z,12.53
2018-03-08T19:17:37.120Z,9.23
2018-03-08T19:20:04.649Z,9.80
2018-03-08T19:22:32.326Z,8.23
2018-03-08T19:25:00.083Z,9.87
2018-03-08T19:27:27.642Z,14.27
2018-03-08T19:29:55.306Z,12.13
2018-03-08T19:32:22.808Z,15.43
2018-03-08T19:34:50.508Z,12.43
2018-03-08T19:37:18.316Z,11.70
2018-03-08T19:39:46.165Z,12.30
2018-03-08T19:42:13.661Z,10.80
2018-03-08T19:44:42.047Z,12.73
2018-03-08T19:47:09.652Z,9.30
2018-03-08T19:49:37.143Z,12.03
2018-03-08T19:52:04.655Z,14.13
2018-03-08T19:54:32.304Z,13.60
2018-03-08T19:56:59.831Z,22.80
2018-03-08T19:59:27.580Z,15.07
2018-03-08T20:01:55.312Z,11.10
2018-03-08T20:04:23.072Z,11.03
2018-03-08T20:06:50.710Z,9.20
2018-03-08T20:09:18.300Z,12.70
2018-03-08T20:11:45.849Z,6.97
2018-03-08T20:14:13.336Z,9.40
2018-03-08T20:16:40.958Z,7.90
2018-03-08T20:19:08.451Z,11.33
2018-03-08T20:21:36.190Z,7.57
2018-03-08T20:24:03.722Z,6.00
2018-03-08T20:26:31.409Z,6.17
2018-03-08T20:28:58.903Z,8.03
2018-03-08T20:31:26.408Z,8.63
2018-03-08T20:33:53.908Z,7.73
2018-03-08T20:36:21.401Z,4.70
2018-03-08T20:38:48.908Z,10.17
2018-03-08T20:41:16.456Z,6.30
2018-03-08T20:43:44.167Z,4.57
2018-03-08T20:46:11.659Z,6.00
2018-03-08T20:48:39.439Z,5.87
2018-03-08T20:51:06.931Z,5.13
2018-03-08T20:53:34.460Z,3.17
2018-03-08T20:56:01.961Z,3.07
2018-03-08T20:58:30.367Z,7.13
2018-03-08T21:00:57.906Z,5.97
2018-03-08T21:03:25.407Z,4.03
2018-03-08T21:05:52.890Z,3.50
2018-03-08T21:08:20.416Z,10.50
2018-03-08T21:10:48.104Z,2.73
2018-03-08T21:13:15.619Z,4.67
2018-03-08T21:15:43.108Z,2.30
2018-03-08T21:18:10.720Z,2.83
2018-03-08T21:20:38.215Z,5.73
2018-03-08T21:23:05.698Z,4.80
2018-03-08T21:25:33.207Z,3.60
2018-03-08T21:28:00.888Z,7.70
2018-03-08T21:30:28.387Z,7.03
2018-03-08T21:32:56.120Z,2.43
2018-03-08T21:35:24.063Z,4.37
2018-03-08T21:37:51.551Z,5.33
2018-03-08T21:40:19.083Z,3.83
2018-03-08T21:42:46.571Z,2.27
2018-03-08T21:45:14.084Z,2.40
2018-03-08T21:47:41.775Z,6.53
2018-03-08T21:50:09.276Z,5.60
2018-03-08T21:52:36.776Z,2.23
2018-03-08T21:55:04.335Z,3.37
2018-03-08T21:57:31.904Z,2.67
2018-03-08T21:59:59.668Z,4.40
2018-03-08T22:02:27.427Z,6.57
2018-03-08T22:04:55.195Z,6.00
2018-03-08T22:07:22.700Z,7.40
2018-03-08T22:09:50.422Z,7.73
2018-03-08T22:12:17.900Z,8.40
2018-03-08T22:14:45.641Z,11.43
2018-03-08T22:17:13.127Z,7.77
2018-03-08T22:19:40.619Z,8.10
2018-03-08T22:22:08.324Z,9.40
2018-03-08T22:24:35.824Z,6.93
2018-03-08T22:27:03.540Z,11.20
2018-03-08T22:29:31.244Z,7.40
2018-03-08T22:31:58.752Z,6.63
2018-03-08T22:34:26.244Z,11.43
2018-03-08T22:36:54.666Z,9.93
2018-03-08T22:39:22.154Z,6.53
2018-03-08T22:41:49.766Z,9.40
2018-03-08T22:44:17.264Z,9.23
2018-03-08T22:46:44.755Z,8.07
2018-03-08T22:49:12.480Z,11.30
2018-03-08T22:51:39.979Z,10.77
2018-03-08T22:54:07.708Z,11.03
2018-03-08T22:56:35.248Z,8.13
2018-03-08T22:59:02.932Z,10.63
2018-03-08T23:04:51.325Z,9.37
2018-03-08T23:07:18.900Z,15.20
2018-03-08T23:09:47.176Z,9.80
2018-03-08T23:12:15.503Z,11.40
2018-03-08T23:14:42.996Z,21.33
2018-03-08T23:17:10.507Z,16.80
2018-03-08T23:19:38.180Z,21.77
2018-03-08T23:22:05.687Z,18.70
2018-03-08T23:24:33.212Z,14.73
2018-03-08T23:27:00.788Z,17.17
2018-03-08T23:29:28.328Z,18.47
2018-03-08T23:31:55.828Z,14.80
2018-03-08T23:34:23.335Z,20.90
2018-03-08T23:36:50.848Z,21.87
2018-03-08T23:39:18.374Z,24.80
2018-03-08T23:41:45.876Z,20.10
2018-03-08T23:44:13.400Z,20.17
2018-03-08T23:46:40.944Z,22.40
2018-03-08T23:49:08.521Z,19.87
2018-03-08T23:51:36.015Z,25.77
2018-03-08T23:54:04.352Z,18.87
2018-03-08T23:56:31.863Z,23.87
2018-03-08T23:58:59.375Z,23.20
